sensor_id;sensor_type;location;lat;lon;timestamp;pressure;altitude;pressure_sealevel;temperature;humidity
37304;BME280;23188;51.188;16.374;2022-12-08T00:00:50;99661.41;;;4.47;96.16
37304;BME280;23188;51.188;16.374;2022-12-08T00:04:51;99661.94;;;4.52;95.72
37304;BME280;23188;51.188;16.374;2022-12-08T00:09:27;99657.81;;;4.55;95.35
37304;BME280;23188;51.188;16.374;2022-12-08T00:13:35;99661.19;;;4.57;95.03
37304;BME280;23188;51.188;16.374;2022-12-08T00:17:36;99661.64;;;4.56;94.29
37304;BME280;23188;51.188;16.374;2022-12-08T00:21:37;99663.66;;;4.53;94.55
37304;BME280;23188;51.188;16.374;2022-12-08T00:25:38;99664.12;;;4.52;94.69
37304;BME280;23188;51.188;16.374;2022-12-08T00:29:44;99654.62;;;4.50;94.64
37304;BME280;23188;51.188;16.374;2022-12-08T00:33:45;99651.45;;;4.45;93.98
37304;BME280;23188;51.188;16.374;2022-12-08T00:37:47;99650.51;;;4.46;93.88
37304;BME280;23188;51.188;16.374;2022-12-08T00:41:48;99644.72;;;4.40;93.11
37304;BME280;23188;51.188;16.374;2022-12-08T00:46:07;99650.92;;;4.39;93.36
37304;BME280;23188;51.188;16.374;2022-12-08T00:50:09;99641.71;;;4.39;93.38
37304;BME280;23188;51.188;16.374;2022-12-08T00:54:11;99648.88;;;4.37;93.62
37304;BME280;23188;51.188;16.374;2022-12-08T00:58:13;99649.24;;;4.38;93.62
37304;BME280;23188;51.188;16.374;2022-12-08T01:02:14;99644.72;;;4.40;93.64
37304;BME280;23188;51.188;16.374;2022-12-08T01:06:15;99650.35;;;4.41;93.18
37304;BME280;23188;51.188;16.374;2022-12-08T01:10:17;99652.89;;;4.43;92.94
37304;BME280;23188;51.188;16.374;2022-12-08T01:14:18;99650.39;;;4.34;92.49
37304;BME280;23188;51.188;16.374;2022-12-08T01:18:19;99657.16;;;4.31;92.62
37304;BME280;23188;51.188;16.374;2022-12-08T01:22:20;99657.36;;;4.28;92.67
37304;BME280;23188;51.188;16.374;2022-12-08T01:26:22;99660.20;;;4.25;92.73
37304;BME280;23188;51.188;16.374;2022-12-08T01:30:23;99655.97;;;4.22;92.80
37304;BME280;23188;51.188;16.374;2022-12-08T01:34:24;99652.51;;;4.22;92.84
37304;BME280;23188;51.188;16.374;2022-12-08T01:38:26;99659.67;;;4.20;92.70
37304;BME280;23188;51.188;16.374;2022-12-08T01:42:27;99655.88;;;4.24;93.00
37304;BME280;23188;51.188;16.374;2022-12-08T01:46:31;99653.98;;;4.26;92.42
37304;BME280;23188;51.188;16.374;2022-12-08T01:50:34;99653.25;;;4.24;92.46
37304;BME280;23188;51.188;16.374;2022-12-08T01:54:45;99654.27;;;4.28;92.19
37304;BME280;23188;51.188;16.374;2022-12-08T01:58:48;99654.73;;;4.28;91.93
37304;BME280;23188;51.188;16.374;2022-12-08T02:02:59;99641.94;;;4.29;91.57
37304;BME280;23188;51.188;16.374;2022-12-08T02:07:05;99641.70;;;4.19;90.51
37304;BME280;23188;51.188;16.374;2022-12-08T02:11:10;99650.62;;;4.04;91.01
37304;BME280;23188;51.188;16.374;2022-12-08T02:15:13;99647.53;;;3.90;92.03
37304;BME280;23188;51.188;16.374;2022-12-08T02:28:10;99646.34;;;3.81;93.23
37304;BME280;23188;51.188;16.374;2022-12-08T02:45:39;99645.35;;;4.04;93.88
37304;BME280;23188;51.188;16.374;2022-12-08T02:49:43;99651.61;;;4.08;92.41
37304;BME280;23188;51.188;16.374;2022-12-08T02:53:45;99656.70;;;4.04;92.53
37304;BME280;23188;51.188;16.374;2022-12-08T03:10:21;99644.28;;;3.86;93.60
37304;BME280;23188;51.188;16.374;2022-12-08T03:14:23;99634.21;;;3.85;93.62
37304;BME280;23188;51.188;16.374;2022-12-08T03:18:27;99626.61;;;3.81;93.56
37304;BME280;23188;51.188;16.374;2022-12-08T03:22:32;99629.92;;;3.77;93.58
37304;BME280;23188;51.188;16.374;2022-12-08T03:26:37;99628.89;;;3.73;93.79
37304;BME280;23188;51.188;16.374;2022-12-08T03:30:44;99624.62;;;3.84;94.63
37304;BME280;23188;51.188;16.374;2022-12-08T03:34:49;99626.69;;;3.86;93.71
37304;BME280;23188;51.188;16.374;2022-12-08T03:38:52;99616.28;;;3.85;93.93
37304;BME280;23188;51.188;16.374;2022-12-08T03:42:54;99615.34;;;3.86;94.25
37304;BME280;23188;51.188;16.374;2022-12-08T03:46:55;99608.76;;;3.86;94.37
37304;BME280;23188;51.188;16.374;2022-12-08T03:50:56;99610.91;;;3.86;94.28
37304;BME280;23188;51.188;16.374;2022-12-08T03:54:57;99607.13;;;3.91;95.14
37304;BME280;23188;51.188;16.374;2022-12-08T03:58:59;99601.48;;;3.97;95.60
37304;BME280;23188;51.188;16.374;2022-12-08T04:03:01;99599.02;;;4.01;95.78
37304;BME280;23188;51.188;16.374;2022-12-08T04:07:04;99600.53;;;3.98;95.85
37304;BME280;23188;51.188;16.374;2022-12-08T04:11:05;99598.11;;;3.95;95.66
37304;BME280;23188;51.188;16.374;2022-12-08T04:15:07;99593.34;;;3.87;95.52
37304;BME280;23188;51.188;16.374;2022-12-08T04:19:10;99590.42;;;3.84;95.16
37304;BME280;23188;51.188;16.374;2022-12-08T04:23:11;99589.65;;;3.90;94.95
37304;BME280;23188;51.188;16.374;2022-12-08T04:27:13;99580.35;;;3.91;94.14
37304;BME280;23188;51.188;16.374;2022-12-08T04:31:14;99581.63;;;3.98;94.27
37304;BME280;23188;51.188;16.374;2022-12-08T04:35:15;99583.06;;;3.97;92.43
37304;BME280;23188;51.188;16.374;2022-12-08T04:39:17;99580.27;;;3.85;91.93
37304;BME280;23188;51.188;16.374;2022-12-08T04:43:19;99582.45;;;3.79;91.75
37304;BME280;23188;51.188;16.374;2022-12-08T04:47:21;99576.12;;;3.68;91.63
37304;BME280;23188;51.188;16.374;2022-12-08T04:51:22;99569.83;;;3.64;92.11
37304;BME280;23188;51.188;16.374;2022-12-08T04:55:24;99570.28;;;3.63;92.62
37304;BME280;23188;51.188;16.374;2022-12-08T04:59:25;99571.77;;;3.75;93.26
37304;BME280;23188;51.188;16.374;2022-12-08T05:03:26;99570.89;;;3.81;91.48
37304;BME280;23188;51.188;16.374;2022-12-08T05:07:27;99569.99;;;3.75;90.69
37304;BME280;23188;51.188;16.374;2022-12-08T05:11:28;99567.98;;;3.51;90.57
37304;BME280;23188;51.188;16.374;2022-12-08T05:15:29;99561.83;;;3.31;91.44
37304;BME280;23188;51.188;16.374;2022-12-08T05:19:31;99556.63;;;3.02;92.97
37304;BME280;23188;51.188;16.374;2022-12-08T05:23:32;99553.73;;;2.77;94.89
37304;BME280;23188;51.188;16.374;2022-12-08T05:27:34;99553.45;;;2.60;96.10
37304;BME280;23188;51.188;16.374;2022-12-08T05:31:36;99547.98;;;2.49;97.13
37304;BME280;23188;51.188;16.374;2022-12-08T05:35:37;99554.81;;;2.37;98.34
37304;BME280;23188;51.188;16.374;2022-12-08T05:39:38;99556.58;;;2.22;99.83
37304;BME280;23188;51.188;16.374;2022-12-08T05:43:39;99554.59;;;2.11;100.00
37304;BME280;23188;51.188;16.374;2022-12-08T05:47:41;99550.73;;;2.09;100.00
37304;BME280;23188;51.188;16.374;2022-12-08T05:51:42;99552.98;;;2.16;100.00
37304;BME280;23188;51.188;16.374;2022-12-08T05:55:44;99549.91;;;2.16;100.00
37304;BME280;23188;51.188;16.374;2022-12-08T05:59:45;99553.39;;;2.24;100.00
37304;BME280;23188;51.188;16.374;2022-12-08T06:03:47;99547.77;;;2.30;100.00
37304;BME280;23188;51.188;16.374;2022-12-08T06:07:48;99549.75;;;2.41;100.00
37304;BME280;23188;51.188;16.374;2022-12-08T06:11:49;99547.23;;;2.54;100.00
37304;BME280;23188;51.188;16.374;2022-12-08T06:15:50;99552.80;;;2.71;100.00
37304;BME280;23188;51.188;16.374;2022-12-08T06:19:51;99550.45;;;2.81;100.00
37304;BME280;23188;51.188;16.374;2022-12-08T06:23:53;99542.93;;;2.89;100.00
37304;BME280;23188;51.188;16.374;2022-12-08T06:27:54;99542.94;;;2.96;99.75
37304;BME280;23188;51.188;16.374;2022-12-08T06:31:56;99536.27;;;3.05;98.81
37304;BME280;23188;51.188;16.374;2022-12-08T06:35:57;99542.35;;;3.06;98.77
37304;BME280;23188;51.188;16.374;2022-12-08T06:39:59;99541.88;;;3.13;98.16
37304;BME280;23188;51.188;16.374;2022-12-08T06:44:00;99548.63;;;3.18;98.00
37304;BME280;23188;51.188;16.374;2022-12-08T06:48:02;99554.54;;;3.21;97.70
37304;BME280;23188;51.188;16.374;2022-12-08T06:52:03;99556.05;;;3.18;97.90
37304;BME280;23188;51.188;16.374;2022-12-08T06:56:06;99555.45;;;3.27;97.51
37304;BME280;23188;51.188;16.374;2022-12-08T07:00:08;99560.89;;;3.32;97.36
37304;BME280;23188;51.188;16.374;2022-12-08T07:04:10;99548.77;;;3.36;97.17
37304;BME280;23188;51.188;16.374;2022-12-08T07:08:11;99554.20;;;3.40;97.35
37304;BME280;23188;51.188;16.374;2022-12-08T07:12:13;99551.28;;;3.45;97.25
37304;BME280;23188;51.188;16.374;2022-12-08T07:16:14;99561.60;;;3.48;96.92
37304;BME280;23188;51.188;16.374;2022-12-08T07:20:15;99554.09;;;3.49;97.01
37304;BME280;23188;51.188;16.374;2022-12-08T07:24:17;99548.25;;;3.51;97.08
37304;BME280;23188;51.188;16.374;2022-12-08T07:28:18;99549.77;;;3.55;96.70
37304;BME280;23188;51.188;16.374;2022-12-08T07:32:19;99546.73;;;3.62;96.54
37304;BME280;23188;51.188;16.374;2022-12-08T07:36:20;99551.50;;;3.69;95.86
37304;BME280;23188;51.188;16.374;2022-12-08T07:40:22;99550.63;;;3.76;95.58
37304;BME280;23188;51.188;16.374;2022-12-08T07:44:23;99547.96;;;3.83;95.19
37304;BME280;23188;51.188;16.374;2022-12-08T07:48:24;99552.55;;;3.87;94.92
37304;BME280;23188;51.188;16.374;2022-12-08T07:52:26;99562.46;;;3.96;94.70
37304;BME280;23188;51.188;16.374;2022-12-08T07:56:27;99559.25;;;3.98;94.20
37304;BME280;23188;51.188;16.374;2022-12-08T08:00:29;99553.48;;;4.06;93.63
37304;BME280;23188;51.188;16.374;2022-12-08T08:04:30;99554.88;;;4.12;93.30
37304;BME280;23188;51.188;16.374;2022-12-08T08:08:31;99559.14;;;4.20;93.24
37304;BME280;23188;51.188;16.374;2022-12-08T08:12:32;99555.38;;;4.24;92.30
37304;BME280;23188;51.188;16.374;2022-12-08T08:16:34;99554.95;;;4.31;92.42
37304;BME280;23188;51.188;16.374;2022-12-08T08:20:35;99557.81;;;4.40;92.01
37304;BME280;23188;51.188;16.374;2022-12-08T08:24:36;99563.14;;;4.46;92.11
37304;BME280;23188;51.188;16.374;2022-12-08T08:28:37;99564.67;;;4.56;92.07
37304;BME280;23188;51.188;16.374;2022-12-08T08:32:39;99564.39;;;4.66;92.22
37304;BME280;23188;51.188;16.374;2022-12-08T08:36:40;99564.81;;;4.73;91.28
37304;BME280;23188;51.188;16.374;2022-12-08T08:40:41;99550.75;;;4.80;90.61
37304;BME280;23188;51.188;16.374;2022-12-08T08:44:43;99552.58;;;4.85;89.86
37304;BME280;23188;51.188;16.374;2022-12-08T08:48:44;99555.95;;;4.87;89.16
37304;BME280;23188;51.188;16.374;2022-12-08T08:52:45;99553.09;;;4.90;88.91
37304;BME280;23188;51.188;16.374;2022-12-08T08:56:46;99550.56;;;5.02;89.18
37304;BME280;23188;51.188;16.374;2022-12-08T09:00:47;99551.14;;;4.99;88.25
37304;BME280;23188;51.188;16.374;2022-12-08T09:04:49;99546.38;;;5.05;88.46
37304;BME280;23188;51.188;16.374;2022-12-08T09:08:50;99547.66;;;5.12;88.21
37304;BME280;23188;51.188;16.374;2022-12-08T09:12:51;99546.72;;;5.19;87.90
37304;BME280;23188;51.188;16.374;2022-12-08T09:16:53;99548.94;;;5.25;88.04
37304;BME280;23188;51.188;16.374;2022-12-08T09:20:54;99546.90;;;5.28;87.70
37304;BME280;23188;51.188;16.374;2022-12-08T09:24:55;99542.66;;;5.39;87.48
37304;BME280;23188;51.188;16.374;2022-12-08T09:28:57;99542.17;;;5.39;86.57
37304;BME280;23188;51.188;16.374;2022-12-08T09:32:58;99535.39;;;5.48;86.89
37304;BME280;23188;51.188;16.374;2022-12-08T09:36:59;99528.59;;;5.57;86.69
37304;BME280;23188;51.188;16.374;2022-12-08T09:41:02;99525.70;;;5.73;86.47
37304;BME280;23188;51.188;16.374;2022-12-08T09:45:13;99525.83;;;5.77;85.80
37304;BME280;23188;51.188;16.374;2022-12-08T09:49:18;99516.77;;;5.93;85.59
37304;BME280;23188;51.188;16.374;2022-12-08T09:57:40;99511.47;;;6.23;83.67
37304;BME280;23188;51.188;16.374;2022-12-08T10:01:41;99511.23;;;6.26;83.14
37304;BME280;23188;51.188;16.374;2022-12-08T10:06:12;99508.61;;;6.32;83.91
37304;BME280;23188;51.188;16.374;2022-12-08T10:10:48;99502.75;;;6.45;82.60
37304;BME280;23188;51.188;16.374;2022-12-08T10:19:22;99499.52;;;6.81;83.37
37304;BME280;23188;51.188;16.374;2022-12-08T10:23:33;99492.53;;;6.92;81.54
37304;BME280;23188;51.188;16.374;2022-12-08T10:27:36;99487.45;;;7.06;81.17
37304;BME280;23188;51.188;16.374;2022-12-08T10:31:38;99492.02;;;7.15;81.46
37304;BME280;23188;51.188;16.374;2022-12-08T10:40:12;99477.33;;;7.22;79.89
37304;BME280;23188;51.188;16.374;2022-12-08T10:44:15;99480.83;;;7.17;80.73
37304;BME280;23188;51.188;16.374;2022-12-08T10:48:20;99481.80;;;7.05;80.48
37304;BME280;23188;51.188;16.374;2022-12-08T10:52:23;99476.77;;;7.02;81.14
37304;BME280;23188;51.188;16.374;2022-12-08T10:56:27;99476.91;;;6.89;80.55
37304;BME280;23188;51.188;16.374;2022-12-08T11:00:30;99475.59;;;6.83;81.53
37304;BME280;23188;51.188;16.374;2022-12-08T11:04:35;99478.36;;;6.70;82.09
37304;BME280;23188;51.188;16.374;2022-12-08T11:08:55;99474.66;;;6.73;82.16
37304;BME280;23188;51.188;16.374;2022-12-08T11:13:00;99469.72;;;6.74;81.94
37304;BME280;23188;51.188;16.374;2022-12-08T11:17:04;99472.23;;;6.75;83.56
37304;BME280;23188;51.188;16.374;2022-12-08T11:21:16;99470.33;;;6.71;82.86
37304;BME280;23188;51.188;16.374;2022-12-08T11:25:24;99464.91;;;6.73;82.83
37304;BME280;23188;51.188;16.374;2022-12-08T11:29:28;99462.16;;;6.75;83.84
37304;BME280;23188;51.188;16.374;2022-12-08T11:33:33;99455.79;;;6.71;84.12
37304;BME280;23188;51.188;16.374;2022-12-08T11:37:42;99455.19;;;6.68;84.02
37304;BME280;23188;51.188;16.374;2022-12-08T11:41:44;99451.33;;;6.66;83.96
37304;BME280;23188;51.188;16.374;2022-12-08T11:45:49;99460.58;;;6.66;84.73
37304;BME280;23188;51.188;16.374;2022-12-08T11:50:02;99463.97;;;6.68;85.12
37304;BME280;23188;51.188;16.374;2022-12-08T11:54:17;99463.25;;;6.61;84.81
37304;BME280;23188;51.188;16.374;2022-12-08T11:58:37;99457.47;;;6.61;85.48
37304;BME280;23188;51.188;16.374;2022-12-08T12:02:43;99454.09;;;6.53;84.51
37304;BME280;23188;51.188;16.374;2022-12-08T12:11:32;99447.03;;;6.54;83.31
37304;BME280;23188;51.188;16.374;2022-12-08T12:20:41;99437.89;;;6.58;84.25
37304;BME280;23188;51.188;16.374;2022-12-08T12:24:53;99442.44;;;6.67;84.44
37304;BME280;23188;51.188;16.374;2022-12-08T12:29:16;99435.97;;;6.71;84.23
37304;BME280;23188;51.188;16.374;2022-12-08T12:33:19;99433.08;;;6.80;84.98
37304;BME280;23188;51.188;16.374;2022-12-08T12:37:35;99437.86;;;6.81;84.33
37304;BME280;23188;51.188;16.374;2022-12-08T12:58:53;99424.74;;;6.96;82.17
37304;BME280;23188;51.188;16.374;2022-12-08T13:02:56;99423.67;;;6.93;82.13
37304;BME280;23188;51.188;16.374;2022-12-08T13:06:58;99428.75;;;6.79;81.89
37304;BME280;23188;51.188;16.374;2022-12-08T13:11:05;99424.30;;;6.74;82.08
37304;BME280;23188;51.188;16.374;2022-12-08T13:15:18;99419.25;;;6.65;82.25
37304;BME280;23188;51.188;16.374;2022-12-08T13:19:20;99417.36;;;6.62;82.50
37304;BME280;23188;51.188;16.374;2022-12-08T13:27:39;99404.61;;;6.67;83.06
37304;BME280;23188;51.188;16.374;2022-12-08T13:36:22;99405.18;;;6.82;82.35
37304;BME280;23188;51.188;16.374;2022-12-08T13:40:31;99403.85;;;6.88;82.06
37304;BME280;23188;51.188;16.374;2022-12-08T13:44:40;99401.45;;;6.84;81.91
37304;BME280;23188;51.188;16.374;2022-12-08T13:48:51;99406.39;;;6.78;82.27
37304;BME280;23188;51.188;16.374;2022-12-08T13:53:00;99410.47;;;6.82;83.19
37304;BME280;23188;51.188;16.374;2022-12-08T13:57:06;99404.92;;;6.85;82.49
37304;BME280;23188;51.188;16.374;2022-12-08T14:01:22;99412.14;;;6.89;82.56
37304;BME280;23188;51.188;16.374;2022-12-08T14:05:38;99416.09;;;6.94;83.59
37304;BME280;23188;51.188;16.374;2022-12-08T14:09:41;99409.84;;;6.95;83.08
37304;BME280;23188;51.188;16.374;2022-12-08T14:13:43;99414.99;;;6.97;83.88
37304;BME280;23188;51.188;16.374;2022-12-08T14:17:52;99415.13;;;6.95;84.31
37304;BME280;23188;51.188;16.374;2022-12-08T14:21:58;99418.84;;;7.04;84.91
37304;BME280;23188;51.188;16.374;2022-12-08T14:26:04;99411.16;;;6.95;82.41
37304;BME280;23188;51.188;16.374;2022-12-08T14:30:32;99413.86;;;6.78;80.67
37304;BME280;23188;51.188;16.374;2022-12-08T14:34:34;99415.54;;;6.62;80.00
37304;BME280;23188;51.188;16.374;2022-12-08T14:39:08;99425.63;;;6.46;79.72
37304;BME280;23188;51.188;16.374;2022-12-08T14:43:15;99427.44;;;6.34;79.92
37304;BME280;23188;51.188;16.374;2022-12-08T14:47:29;99427.92;;;6.22;80.37
37304;BME280;23188;51.188;16.374;2022-12-08T14:51:42;99425.04;;;6.13;81.01
37304;BME280;23188;51.188;16.374;2022-12-08T14:55:47;99426.96;;;6.11;81.33
37304;BME280;23188;51.188;16.374;2022-12-08T14:59:51;99429.06;;;5.95;81.15
37304;BME280;23188;51.188;16.374;2022-12-08T15:04:29;99427.92;;;5.75;81.70
37304;BME280;23188;51.188;16.374;2022-12-08T15:08:15;99427.98;;;5.56;82.55
37304;BME280;23188;51.188;16.374;2022-12-08T15:12:22;99425.03;;;5.36;83.90
37304;BME280;23188;51.188;16.374;2022-12-08T15:16:37;99432.02;;;5.13;85.08
37304;BME280;23188;51.188;16.374;2022-12-08T15:20:41;99425.45;;;5.00;85.75
37304;BME280;23188;51.188;16.374;2022-12-08T15:24:54;99424.73;;;4.79;86.78
37304;BME280;23188;51.188;16.374;2022-12-08T15:28:57;99426.81;;;4.68;87.10
37304;BME280;23188;51.188;16.374;2022-12-08T15:32:58;99426.45;;;4.67;87.45
37304;BME280;23188;51.188;16.374;2022-12-08T15:36:59;99430.89;;;4.67;87.41
37304;BME280;23188;51.188;16.374;2022-12-08T15:41:00;99421.11;;;4.56;87.48
37304;BME280;23188;51.188;16.374;2022-12-08T15:45:03;99423.55;;;4.46;87.89
37304;BME280;23188;51.188;16.374;2022-12-08T15:49:07;99418.67;;;4.34;89.12
37304;BME280;23188;51.188;16.374;2022-12-08T15:53:18;99422.63;;;4.08;91.46
37304;BME280;23188;51.188;16.374;2022-12-08T15:57:28;99423.78;;;4.04;91.08
37304;BME280;23188;51.188;16.374;2022-12-08T16:01:28;99425.74;;;4.08;90.17
37304;BME280;23188;51.188;16.374;2022-12-08T16:05:36;99422.69;;;4.01;90.58
37304;BME280;23188;51.188;16.374;2022-12-08T16:09:41;99410.94;;;3.86;91.77
37304;BME280;23188;51.188;16.374;2022-12-08T16:13:44;99413.65;;;3.72;92.04
37304;BME280;23188;51.188;16.374;2022-12-08T16:17:51;99408.80;;;3.53;92.49
37304;BME280;23188;51.188;16.374;2022-12-08T16:21:53;99408.06;;;3.51;91.93
37304;BME280;23188;51.188;16.374;2022-12-08T16:25:54;99409.97;;;3.62;90.89
37304;BME280;23188;51.188;16.374;2022-12-08T16:29:58;99411.59;;;3.70;89.94
37304;BME280;23188;51.188;16.374;2022-12-08T16:34:00;99405.24;;;3.80;89.43
37304;BME280;23188;51.188;16.374;2022-12-08T16:38:01;99409.62;;;3.86;89.42
37304;BME280;23188;51.188;16.374;2022-12-08T16:42:03;99415.41;;;3.92;89.75
37304;BME280;23188;51.188;16.374;2022-12-08T16:46:29;99417.36;;;3.95;89.94
37304;BME280;23188;51.188;16.374;2022-12-08T16:50:33;99424.22;;;3.98;90.45
37304;BME280;23188;51.188;16.374;2022-12-08T16:54:35;99427.43;;;3.96;90.71
37304;BME280;23188;51.188;16.374;2022-12-08T16:58:36;99423.20;;;4.06;90.02
37304;BME280;23188;51.188;16.374;2022-12-08T17:02:38;99418.83;;;4.12;90.02
37304;BME280;23188;51.188;16.374;2022-12-08T17:06:41;99415.25;;;4.00;90.60
37304;BME280;23188;51.188;16.374;2022-12-08T17:10:42;99413.11;;;4.00;90.75
37304;BME280;23188;51.188;16.374;2022-12-08T17:14:44;99413.84;;;4.15;90.12
37304;BME280;23188;51.188;16.374;2022-12-08T17:18:46;99412.14;;;4.27;89.84
37304;BME280;23188;51.188;16.374;2022-12-08T17:22:48;99411.84;;;4.19;90.39
37304;BME280;23188;51.188;16.374;2022-12-08T17:26:51;99412.42;;;4.17;91.23
37304;BME280;23188;51.188;16.374;2022-12-08T17:30:53;99416.01;;;4.16;91.21
37304;BME280;23188;51.188;16.374;2022-12-08T17:34:54;99416.20;;;4.25;91.17
37304;BME280;23188;51.188;16.374;2022-12-08T17:38:58;99409.94;;;4.21;91.68
37304;BME280;23188;51.188;16.374;2022-12-08T17:43:00;99423.40;;;4.29;90.66
37304;BME280;23188;51.188;16.374;2022-12-08T17:47:04;99424.45;;;4.39;89.98
37304;BME280;23188;51.188;16.374;2022-12-08T17:51:08;99420.59;;;4.38;89.90
37304;BME280;23188;51.188;16.374;2022-12-08T17:55:09;99419.34;;;4.43;90.05
37304;BME280;23188;51.188;16.374;2022-12-08T17:59:11;99412.89;;;4.48;89.20
37304;BME280;23188;51.188;16.374;2022-12-08T18:03:16;99404.93;;;4.36;89.28
37304;BME280;23188;51.188;16.374;2022-12-08T18:07:18;99417.94;;;4.51;88.36
37304;BME280;23188;51.188;16.374;2022-12-08T18:11:19;99411.53;;;4.55;87.88
37304;BME280;23188;51.188;16.374;2022-12-08T18:15:21;99409.09;;;4.52;87.78
37304;BME280;23188;51.188;16.374;2022-12-08T18:19:23;99406.95;;;4.51;87.81
37304;BME280;23188;51.188;16.374;2022-12-08T18:23:24;99399.41;;;4.52;87.67
37304;BME280;23188;51.188;16.374;2022-12-08T18:27:25;99410.22;;;4.55;87.69
37304;BME280;23188;51.188;16.374;2022-12-08T18:31:27;99407.85;;;4.45;87.84
37304;BME280;23188;51.188;16.374;2022-12-08T18:35:28;99410.48;;;4.45;87.81
37304;BME280;23188;51.188;16.374;2022-12-08T18:39:31;99413.22;;;4.56;87.78
37304;BME280;23188;51.188;16.374;2022-12-08T18:43:33;99401.73;;;4.57;87.34
37304;BME280;23188;51.188;16.374;2022-12-08T18:47:39;99414.04;;;4.56;86.70
37304;BME280;23188;51.188;16.374;2022-12-08T18:51:41;99411.44;;;4.43;87.47
37304;BME280;23188;51.188;16.374;2022-12-08T18:55:42;99404.77;;;4.51;87.49
37304;BME280;23188;51.188;16.374;2022-12-08T18:59:45;99406.55;;;4.63;87.83
37304;BME280;23188;51.188;16.374;2022-12-08T19:03:52;99399.15;;;4.68;88.04
37304;BME280;23188;51.188;16.374;2022-12-08T19:07:53;99399.23;;;4.61;88.11
37304;BME280;23188;51.188;16.374;2022-12-08T19:11:55;99399.70;;;4.29;90.49
37304;BME280;23188;51.188;16.374;2022-12-08T19:15:57;99404.78;;;4.06;92.26
37304;BME280;23188;51.188;16.374;2022-12-08T19:19:58;99417.88;;;4.00;92.86
37304;BME280;23188;51.188;16.374;2022-12-08T19:23:59;99418.58;;;4.10;92.52
37304;BME280;23188;51.188;16.374;2022-12-08T19:28:02;99412.59;;;4.08;92.43
37304;BME280;23188;51.188;16.374;2022-12-08T19:32:04;99420.14;;;4.12;91.65
37304;BME280;23188;51.188;16.374;2022-12-08T19:36:07;99416.73;;;4.18;90.72
37304;BME280;23188;51.188;16.374;2022-12-08T19:40:12;99414.19;;;4.29;89.59
37304;BME280;23188;51.188;16.374;2022-12-08T19:44:38;99411.29;;;4.39;88.64
37304;BME280;23188;51.188;16.374;2022-12-08T19:48:54;99404.48;;;4.42;87.78
37304;BME280;23188;51.188;16.374;2022-12-08T19:52:57;99411.70;;;4.46;86.96
37304;BME280;23188;51.188;16.374;2022-12-08T19:56:59;99417.12;;;4.50;87.11
37304;BME280;23188;51.188;16.374;2022-12-08T20:01:01;99415.48;;;4.55;86.80
37304;BME280;23188;51.188;16.374;2022-12-08T20:05:08;99414.99;;;4.55;86.58
37304;BME280;23188;51.188;16.374;2022-12-08T20:09:39;99407.63;;;4.48;86.98
37304;BME280;23188;51.188;16.374;2022-12-08T20:13:40;99415.02;;;4.42;86.07
37304;BME280;23188;51.188;16.374;2022-12-08T20:17:44;99413.24;;;4.43;86.31
37304;BME280;23188;51.188;16.374;2022-12-08T20:21:45;99414.70;;;4.47;86.56
37304;BME280;23188;51.188;16.374;2022-12-08T20:25:46;99418.29;;;4.46;86.12
37304;BME280;23188;51.188;16.374;2022-12-08T20:29:49;99420.43;;;4.47;85.83
37304;BME280;23188;51.188;16.374;2022-12-08T20:34:04;99427.29;;;4.49;85.80
37304;BME280;23188;51.188;16.374;2022-12-08T20:38:05;99429.58;;;4.35;86.13
37304;BME280;23188;51.188;16.374;2022-12-08T20:42:11;99434.88;;;4.28;86.79
37304;BME280;23188;51.188;16.374;2022-12-08T20:46:40;99440.21;;;4.21;87.39
37304;BME280;23188;51.188;16.374;2022-12-08T20:50:41;99437.16;;;4.14;87.90
37304;BME280;23188;51.188;16.374;2022-12-08T20:54:43;99434.68;;;4.05;88.28
37304;BME280;23188;51.188;16.374;2022-12-08T20:58:47;99435.84;;;4.01;88.47
37304;BME280;23188;51.188;16.374;2022-12-08T21:02:49;99437.00;;;4.10;88.67
37304;BME280;23188;51.188;16.374;2022-12-08T21:06:50;99430.48;;;4.16;88.41
37304;BME280;23188;51.188;16.374;2022-12-08T21:11:11;99436.79;;;4.13;88.49
37304;BME280;23188;51.188;16.374;2022-12-08T21:15:13;99434.68;;;4.05;88.64
37304;BME280;23188;51.188;16.374;2022-12-08T21:19:15;99435.41;;;4.07;88.79
37304;BME280;23188;51.188;16.374;2022-12-08T21:23:18;99436.73;;;3.94;89.19
37304;BME280;23188;51.188;16.374;2022-12-08T21:27:33;99433.36;;;3.79;90.13
37304;BME280;23188;51.188;16.374;2022-12-08T21:31:34;99429.06;;;3.71;90.91
37304;BME280;23188;51.188;16.374;2022-12-08T21:35:36;99429.64;;;3.69;91.33
37304;BME280;23188;51.188;16.374;2022-12-08T21:39:37;99436.34;;;3.67;92.16
37304;BME280;23188;51.188;16.374;2022-12-08T21:43:48;99438.27;;;3.71;92.15
37304;BME280;23188;51.188;16.374;2022-12-08T21:47:49;99434.33;;;3.71;92.00
37304;BME280;23188;51.188;16.374;2022-12-08T21:51:51;99430.20;;;3.74;91.42
37304;BME280;23188;51.188;16.374;2022-12-08T21:55:52;99422.67;;;3.75;91.07
37304;BME280;23188;51.188;16.374;2022-12-08T21:59:53;99426.12;;;3.76;90.27
37304;BME280;23188;51.188;16.374;2022-12-08T22:08:49;99423.95;;;3.62;90.20
37304;BME280;23188;51.188;16.374;2022-12-08T22:13:18;99427.70;;;3.45;91.63
37304;BME280;23188;51.188;16.374;2022-12-08T22:17:19;99433.95;;;3.37;92.73
37304;BME280;23188;51.188;16.374;2022-12-08T22:21:21;99425.50;;;3.32;92.88
37304;BME280;23188;51.188;16.374;2022-12-08T22:25:22;99425.33;;;3.35;92.13
37304;BME280;23188;51.188;16.374;2022-12-08T22:29:23;99418.34;;;3.41;91.62
37304;BME280;23188;51.188;16.374;2022-12-08T22:38:06;99424.22;;;3.65;90.48
37304;BME280;23188;51.188;16.374;2022-12-08T22:42:07;99426.19;;;3.68;89.14
37304;BME280;23188;51.188;16.374;2022-12-08T22:46:22;99430.20;;;3.74;88.68
37304;BME280;23188;51.188;16.374;2022-12-08T22:50:36;99429.05;;;3.78;88.43
37304;BME280;23188;51.188;16.374;2022-12-08T22:54:37;99430.14;;;3.81;87.86
37304;BME280;23188;51.188;16.374;2022-12-08T22:58:40;99441.19;;;3.86;87.69
37304;BME280;23188;51.188;16.374;2022-12-08T23:02:41;99441.77;;;3.84;87.56
37304;BME280;23188;51.188;16.374;2022-12-08T23:06:42;99436.36;;;3.80;88.03